»·PEaware :: N143VT KSEE-KSDL

N143VT :: KSEE-KSDL

FLIGHT INFORMATION

Flight Status: Arrived
Operator: Privately registered:
United States
More flights under this callsign
Pilot: Anonymous 16492 (16492)
Aircraft: ECLIPSE 500
(EA50)
More flights by this aircraft type
Origin: KSEE Gillespie
United States
Destination: KSDL Scottsdale
United States
More flights between these airports :: More routes between these airports
Route: MZB1 MZB V317 IPL V66 MOHAK ARLIN4
File this flight plan on PilotEdge
Remarks:
Altitude:
(Current/Filed)
25,000ft
Speed:
(Current/Filed)
330kts
Departed: 25-Oct-18 06:27 PM
Arrived: 25-Oct-18 07:44 PM
Distance/Time
Traveled:
258nm/1:17
Distance/Time
To Go:
Arrived

Flight Plot

Page will automatically refresh every two minutes.

Flight plan parsing failed; only flown route is shown


Map Options




Map Legend


Flown Route
Filed Route
Departure Airport
Arrival Airport
Navaid (VOR, NDB)
Fix

Horizontal Profiles

Position Reports

Time Latitude Longitude Heading Altitude Ground
Speed
25-Oct-18 18:10 32.825086 -116.969647 5 391ft 0kts
25-Oct-18 18:11 32.825086 -116.969647 5 391ft 0kts
25-Oct-18 18:12 32.825086 -116.969647 5 391ft 0kts
25-Oct-18 18:13 32.825086 -116.969647 5 391ft 0kts
25-Oct-18 18:14 32.825086 -116.969647 5 391ft 0kts
25-Oct-18 18:15 32.825086 -116.969647 5 391ft 0kts
25-Oct-18 18:16 32.825086 -116.969647 5 391ft 0kts
25-Oct-18 18:17 32.825086 -116.969647 5 391ft 0kts
25-Oct-18 18:18 32.825086 -116.969647 5 391ft 0kts
25-Oct-18 18:19 32.825086 -116.969647 5 391ft 0kts
25-Oct-18 18:20 32.825086 -116.969647 5 391ft 0kts
25-Oct-18 18:21 32.825086 -116.969647 5 391ft 0kts
25-Oct-18 18:22 32.825086 -116.969647 5 391ft 0kts
25-Oct-18 18:23 32.825086 -116.969647 5 391ft 0kts
25-Oct-18 18:24 32.825086 -116.969647 5 391ft 0kts
25-Oct-18 18:25 32.825166 -116.970152 273 391ft 6kts
25-Oct-18 18:26 32.825237 -116.967661 102 391ft 23kts
25-Oct-18 18:27 32.825818 -116.964342 348 391ft 1kts
25-Oct-18 18:28 32.825827 -116.964344 348 391ft 0kts
25-Oct-18 18:29 32.828713 -116.977524 280 445ft 120kts
25-Oct-18 18:30 32.852802 -116.995011 54 2169ft 157kts
25-Oct-18 18:31 32.828369 -116.958244 177 3176ft 176kts
25-Oct-18 18:32 32.780440 -116.958662 223 4581ft 174kts
25-Oct-18 18:33 32.776721 -117.012796 273 6108ft 172kts
25-Oct-18 18:34 32.777904 -117.060315 274 7318ft 176kts
25-Oct-18 18:35 32.779672 -117.128885 275 9511ft 182kts
25-Oct-18 18:36 32.781000 -117.179622 275 10997ft 187kts
25-Oct-18 18:37 32.747327 -117.212095 122 12851ft 203kts
25-Oct-18 18:38 32.722769 -117.157393 118 13771ft 227kts
25-Oct-18 18:39 32.688997 -117.098710 122 15633ft 214kts
25-Oct-18 18:40 32.652659 -117.042510 123 17065ft 217kts
25-Oct-18 18:41 32.615813 -116.985952 102 18376ft 213kts
25-Oct-18 18:42 32.618326 -116.918862 78 19644ft 204kts
25-Oct-18 18:43 32.623811 -116.852160 77 20820ft 205kts
25-Oct-18 18:44 32.629974 -116.784828 76 21901ft 207kts
25-Oct-18 18:45 32.636491 -116.716451 76 22909ft 210kts
25-Oct-18 18:46 32.643144 -116.647547 75 23857ft 212kts
25-Oct-18 18:47 32.649888 -116.577843 75 24733ft 214kts
25-Oct-18 18:48 32.656918 -116.505630 75 25070ft 238kts
25-Oct-18 18:49 32.664872 -116.422991 76 25068ft 266kts
25-Oct-18 18:50 32.673454 -116.332745 77 25047ft 285kts
25-Oct-18 18:51 32.682362 -116.238368 77 25009ft 298kts
25-Oct-18 18:52 32.691610 -116.139612 78 24972ft 305kts
25-Oct-18 18:53 32.700895 -116.039401 77 24969ft 300kts
25-Oct-18 18:54 32.710025 -115.940397 77 24970ft 304kts
25-Oct-18 18:55 32.719110 -115.840858 77 24970ft 304kts
25-Oct-18 18:56 32.728090 -115.741629 77 24969ft 304kts
25-Oct-18 18:57 32.737055 -115.641651 77 24967ft 304kts
25-Oct-18 18:58 32.745923 -115.541882 77 24959ft 304kts
25-Oct-18 18:59 32.750029 -115.442003 81 24951ft 307kts
25-Oct-18 19:00 32.752795 -115.341037 82 24951ft 307kts
25-Oct-18 19:01 32.755223 -115.240291 82 24952ft 307kts
25-Oct-18 19:02 32.757467 -115.139416 81 24955ft 307kts
25-Oct-18 19:03 32.759665 -115.037971 81 24978ft 309kts
25-Oct-18 19:04 32.761767 -114.936180 81 24978ft 309kts
25-Oct-18 19:05 32.763821 -114.834081 81 24978ft 309kts
25-Oct-18 19:06 32.765765 -114.732404 81 24977ft 308kts
25-Oct-18 19:07 32.767619 -114.630516 81 24977ft 308kts
25-Oct-18 19:08 32.769177 -114.528298 81 24977ft 310kts
25-Oct-18 19:09 32.770592 -114.426397 81 24977ft 309kts
25-Oct-18 19:10 32.771827 -114.331451 82 24979ft 310kts
25-Oct-18 19:11 32.773084 -114.229157 82 24979ft 310kts
25-Oct-18 19:12 32.774237 -114.127566 82 24978ft 309kts
25-Oct-18 19:13 32.775317 -114.025254 82 24978ft 309kts
25-Oct-18 19:14 32.782894 -113.924804 73 24978ft 304kts
25-Oct-18 19:15 32.796954 -113.825817 73 24977ft 304kts
25-Oct-18 19:16 32.810979 -113.727323 73 24978ft 304kts
25-Oct-18 19:17 32.851114 -113.645834 45 24981ft 288kts
25-Oct-18 19:18 32.903173 -113.573208 44 24142ft 286kts
25-Oct-18 19:19 32.954267 -113.503669 44 22607ft 279kts
25-Oct-18 19:20 33.004935 -113.435083 44 21070ft 274kts
25-Oct-18 19:21 33.054783 -113.367666 43 19737ft 270kts
25-Oct-18 19:22 33.103981 -113.301073 44 18656ft 270kts
25-Oct-18 19:23 33.152571 -113.235221 44 17183ft 264kts
25-Oct-18 19:24 33.200460 -113.170207 44 15701ft 259kts
25-Oct-18 19:25 33.247585 -113.106104 44 14212ft 255kts
25-Oct-18 19:26 33.272798 -113.029366 81 12730ft 265kts
25-Oct-18 19:27 33.276738 -112.942370 83 11975ft 264kts
25-Oct-18 19:28 33.279656 -112.848732 84 11974ft 297kts
25-Oct-18 19:29 33.282183 -112.749209 84 11973ft 301kts
25-Oct-18 19:30 33.284515 -112.649533 84 11973ft 301kts
25-Oct-18 19:31 33.286743 -112.550857 85 10067ft 293kts
25-Oct-18 19:32 33.288635 -112.464206 86 7697ft 248kts
25-Oct-18 19:33 33.290559 -112.374914 87 5997ft 272kts
25-Oct-18 19:34 33.292364 -112.282449 88 5961ft 285kts
25-Oct-18 19:35 33.294142 -112.187858 88 5958ft 286kts
25-Oct-18 19:36 33.297752 -112.099793 63 5948ft 229kts
25-Oct-18 19:37 33.347202 -112.050316 36 4953ft 239kts
25-Oct-18 19:38 33.394792 -112.005921 36 4162ft 206kts
25-Oct-18 19:39 33.440375 -111.969626 14 4150ft 195kts
25-Oct-18 19:40 33.492683 -111.952277 13 3781ft 195kts
25-Oct-18 19:41 33.544803 -111.935478 13 3663ft 192kts
25-Oct-18 19:42 33.592502 -111.917176 38 2766ft 163kts
25-Oct-18 19:43 33.622459 -111.885325 41 2479ft 127kts
25-Oct-18 19:44 33.649001 -111.885734 274 2075ft 114kts
25-Oct-18 19:45 33.627988 -111.904644 224 1514ft 84kts
25-Oct-18 19:46 33.620881 -111.912824 222 1513ft 4kts
25-Oct-18 19:47 33.621828 -111.913775 317 1513ft 0kts
25-Oct-18 19:48 33.621828 -111.913776 317 1511ft 0kts
25-Oct-18 19:49 33.621828 -111.913776 317 1511ft 0kts
25-Oct-18 19:50 33.621828 -111.913776 317 1511ft 0kts
25-Oct-18 19:51 33.621828 -111.913776 317 1511ft 0kts
25-Oct-18 19:52 33.621828 -111.913776 317 1511ft 0kts

Navigation Log

Ident Type
Flight plan parsing failed, navigation log unavailable